Ops Hamburg — A8VS9 — position and weather

sailwx.info

Track history (hours):
 
Tides and Currents Weather Stations Pressure Air Temp Water Temp Dewpoint Dewpoint Depression Visibility Wind Speed Wind Dir Waves Ship Positions

Ops Hamburg

Last reported at 2018-Apr-19 07:56 UTC. Time now 2018-Apr-23 19:31 UTC.
Position N 35°59' W 005°14'.

Length 148 m; draft 7.4 m.

Type: Ship (hazmat cat A). MMSI: 636092040.

Date/timePositionNaut miles runAvg speedWind from/ knotsBaromVisibWave heightAir tempDewpointWater temp
2018-Apr-19 07:56N 35°59' W 005°14'613.3
2018-Apr-19 07:30N 36°01' W 005°20'612.1
2018-Apr-19 07:00N 36°06' W 005°25'2 3.0
2018-Apr-19 06:29N 36°08' W 005°25'0 0.0
2018-Apr-19 05:53N 36°08' W 005°25'0 0.0
2018-Apr-19 05:11N 36°08' W 005°25'0 0.0
2018-Apr-19 04:47N 36°08' W 005°25'0 0.0
2018-Apr-19 04:05N 36°08' W 005°25'0 0.1
2018-Apr-19 03:56N 36°08' W 005°25'0 0.0
2018-Apr-19 03:26N 36°08' W 005°25'0 0.0
2018-Apr-19 02:59N 36°08' W 005°25'0 0.0
2018-Apr-19 02:26N 36°08' W 005°25'0 0.0
2018-Apr-19 01:59N 36°08' W 005°25'0 0.0
2018-Apr-19 01:29N 36°08' W 005°25'0 0.0
2018-Apr-19 00:59N 36°08' W 005°25'0 0.0
2018-Apr-19 00:29N 36°08' W 005°25'0 0.0
2018-Apr-18 23:59N 36°08' W 005°25'0 0.0
2018-Apr-18 23:29N 36°08' W 005°25'0 0.2
2018-Apr-18 23:00N 36°08' W 005°25'1 2.7
2018-Apr-18 22:30N 36°07' W 005°24'4 7.7
2018-Apr-18 22:00N 36°04' W 005°22'2 3.6
2018-Apr-18 21:31N 36°03' W 005°20'2 3.6
2018-Apr-18 21:00N 36°03' W 005°22'4 8.1
2018-Apr-18 20:30N 36°04' W 005°17'19 0.7
2018-Apr-17 16:12N 36°11' W 004°56'  
2018-Apr-13 19:30N 35°57' W 005°34'1212.0
2018-Apr-13 18:30N 36°02' W 005°20'510.5
2018-Apr-13 18:00N 36°03' W 005°14'21311.8
2018-Apr-12 23:56N 37°14' W 001°04'612.6
2018-Apr-12 23:29N 37°17' W 000°58'612.5
2018-Apr-12 23:00N 37°21' W 000°53'612.4
2018-Apr-12 22:30N 37°26' W 000°47'1111.7
2018-Apr-12 21:35N 37°33' W 000°37'112.3
2018-Apr-12 21:30N 37°33' W 000°36'612.3
2018-Apr-12 21:00N 37°38' W 000°30'612.6
2018-Apr-12 20:30N 37°43' W 000°26'612.6
2018-Apr-12 20:00N 37°48' W 000°22'612.6
2018-Apr-12 19:30N 37°54' W 000°17'612.6
2018-Apr-12 19:00N 37°59' W 000°13'8410.1
2018-Apr-12 10:40N 39°23' W 000°12'211.1
2018-Apr-12 10:28N 39°24' W 000°14'4 1.4
2018-Apr-12 07:27N 39°26' W 000°19'2 4.7
2018-Apr-12 06:58N 39°25' W 000°17'1 0.0
2018-Apr-11 03:33N 39°24' W 000°16'0 0.0
2018-Apr-11 03:30N 39°24' W 000°16'0 0.0
2018-Apr-11 03:00N 39°24' W 000°16'0 0.0
2018-Apr-11 02:30N 39°24' W 000°16'0 0.0
2018-Apr-11 02:00N 39°24' W 000°16'0 0.1
2018-Apr-11 01:18N 39°24' W 000°16'0 0.0
2018-Apr-11 01:00N 39°24' W 000°16'0 0.0
2018-Apr-11 00:27N 39°24' W 000°16'0 0.0
2018-Apr-11 00:00N 39°24' W 000°16'0 0.1
2018-Apr-10 23:12N 39°24' W 000°16'0 0.5
2018-Apr-10 23:00N 39°24' W 000°16'4 7.2
2018-Apr-10 22:29N 39°26' W 000°12'15011.7
2018-Apr-10 09:38N 41°03' E 002°18'212.2
2018-Apr-10 09:30N 41°04' E 002°20'712.6
2018-Apr-10 08:58N 41°08' E 002°27'17112.9
2018-Apr-09 19:43N 43°11' E 005°08'312.3
2018-Apr-09 19:30N 43°14' E 005°09'611.2
2018-Apr-09 18:55N 43°19' E 005°14'410.6
2018-Apr-09 18:30N 43°21' E 005°19'  
Track history (hours):
 
Tides and Currents Weather Stations Pressure Air Temp Water Temp Dewpoint Dewpoint Depression Visibility Wind Speed Wind Dir Waves Ship Positions

Ops Hamburg

Last reported at 2018-Apr-19 07:56 UTC. Time now 2018-Apr-23 19:31 UTC.
Position N 35°59' W 005°14'.

Length 148 m; draft 7.4 m.

Type: Ship (hazmat cat A). MMSI: 636092040.

Date/timePositionNaut miles runAvg speedWind from/ knotsBaromVisibWave heightAir tempDewpointWater temp
2018-Apr-19 07:56N 35°59' W 005°14'613.3
2018-Apr-19 07:30N 36°01' W 005°20'612.1
2018-Apr-19 07:00N 36°06' W 005°25'2 3.0
2018-Apr-19 06:29N 36°08' W 005°25'0 0.0
2018-Apr-19 05:53N 36°08' W 005°25'0 0.0
2018-Apr-19 05:11N 36°08' W 005°25'0 0.0
2018-Apr-19 04:47N 36°08' W 005°25'0 0.0
2018-Apr-19 04:05N 36°08' W 005°25'0 0.1
2018-Apr-19 03:56N 36°08' W 005°25'0 0.0
2018-Apr-19 03:26N 36°08' W 005°25'0 0.0
2018-Apr-19 02:59N 36°08' W 005°25'0 0.0
2018-Apr-19 02:26N 36°08' W 005°25'0 0.0
2018-Apr-19 01:59N 36°08' W 005°25'0 0.0
2018-Apr-19 01:29N 36°08' W 005°25'0 0.0
2018-Apr-19 00:59N 36°08' W 005°25'0 0.0
2018-Apr-19 00:29N 36°08' W 005°25'0 0.0
2018-Apr-18 23:59N 36°08' W 005°25'0 0.0
2018-Apr-18 23:29N 36°08' W 005°25'0 0.2
2018-Apr-18 23:00N 36°08' W 005°25'1 2.7
2018-Apr-18 22:30N 36°07' W 005°24'4 7.7
2018-Apr-18 22:00N 36°04' W 005°22'2 3.6
2018-Apr-18 21:31N 36°03' W 005°20'2 3.6
2018-Apr-18 21:00N 36°03' W 005°22'4 8.1
2018-Apr-18 20:30N 36°04' W 005°17'19 0.7
2018-Apr-17 16:12N 36°11' W 004°56'  
2018-Apr-13 19:30N 35°57' W 005°34'1212.0
2018-Apr-13 18:30N 36°02' W 005°20'510.5
2018-Apr-13 18:00N 36°03' W 005°14'21311.8
2018-Apr-12 23:56N 37°14' W 001°04'612.6
2018-Apr-12 23:29N 37°17' W 000°58'612.5
2018-Apr-12 23:00N 37°21' W 000°53'612.4
2018-Apr-12 22:30N 37°26' W 000°47'1111.7
2018-Apr-12 21:35N 37°33' W 000°37'112.3
2018-Apr-12 21:30N 37°33' W 000°36'612.3
2018-Apr-12 21:00N 37°38' W 000°30'612.6
2018-Apr-12 20:30N 37°43' W 000°26'612.6
2018-Apr-12 20:00N 37°48' W 000°22'612.6
2018-Apr-12 19:30N 37°54' W 000°17'612.6
2018-Apr-12 19:00N 37°59' W 000°13'8410.1
2018-Apr-12 10:40N 39°23' W 000°12'211.1
2018-Apr-12 10:28N 39°24' W 000°14'4 1.4
2018-Apr-12 07:27N 39°26' W 000°19'2 4.7
2018-Apr-12 06:58N 39°25' W 000°17'1 0.0
2018-Apr-11 03:33N 39°24' W 000°16'0 0.0
2018-Apr-11 03:30N 39°24' W 000°16'0 0.0
2018-Apr-11 03:00N 39°24' W 000°16'0 0.0
2018-Apr-11 02:30N 39°24' W 000°16'0 0.0
2018-Apr-11 02:00N 39°24' W 000°16'0 0.1
2018-Apr-11 01:18N 39°24' W 000°16'0 0.0
2018-Apr-11 01:00N 39°24' W 000°16'0 0.0
2018-Apr-11 00:27N 39°24' W 000°16'0 0.0
2018-Apr-11 00:00N 39°24' W 000°16'0 0.1
2018-Apr-10 23:12N 39°24' W 000°16'0 0.5
2018-Apr-10 23:00N 39°24' W 000°16'4 7.2
2018-Apr-10 22:29N 39°26' W 000°12'15011.7
2018-Apr-10 09:38N 41°03' E 002°18'212.2
2018-Apr-10 09:30N 41°04' E 002°20'712.6
2018-Apr-10 08:58N 41°08' E 002°27'17112.9
2018-Apr-09 19:43N 43°11' E 005°08'312.3
2018-Apr-09 19:30N 43°14' E 005°09'611.2
2018-Apr-09 18:55N 43°19' E 005°14'410.6
2018-Apr-09 18:30N 43°21' E 005°19'  

Dump ship's entire track history